createdAt,value
2018-07-04T00:01:17.777Z,23.40
2018-07-04T00:04:04.499Z,23.30
2018-07-04T00:06:52.026Z,23.30
2018-07-04T00:09:38.775Z,23.20
2018-07-04T00:12:25.395Z,23.20
2018-07-04T00:15:12.271Z,23.20
2018-07-04T00:17:59.865Z,23.00
2018-07-04T00:20:46.611Z,23.10
2018-07-04T00:23:33.281Z,23.10
2018-07-04T00:26:20.019Z,23.00
2018-07-04T00:29:06.714Z,23.00
2018-07-04T00:31:53.327Z,23.00
2018-07-04T00:34:40.829Z,22.90
2018-07-04T00:37:27.510Z,23.00
2018-07-04T00:40:14.246Z,22.90
2018-07-04T00:43:00.862Z,22.80
2018-07-04T00:45:47.527Z,22.80
2018-07-04T00:48:34.197Z,22.80
2018-07-04T00:51:20.996Z,22.70
2018-07-04T00:54:07.812Z,22.80
2018-07-04T00:56:55.303Z,22.70
2018-07-04T00:59:42.044Z,22.70
2018-07-04T01:02:29.354Z,22.60
2018-07-04T01:05:15.975Z,22.60
2018-07-04T01:08:02.668Z,22.50
2018-07-04T01:10:49.485Z,22.40
2018-07-04T01:13:36.930Z,22.40
2018-07-04T01:16:23.619Z,22.40
2018-07-04T01:19:10.223Z,22.30
2018-07-04T01:21:56.976Z,22.30
2018-07-04T01:24:43.590Z,22.40
2018-07-04T01:27:30.205Z,22.30
2018-07-04T01:30:16.953Z,22.30
2018-07-04T01:33:04.384Z,22.30
2018-07-04T01:35:51.706Z,22.20
2018-07-04T01:38:38.274Z,22.10
2018-07-04T01:41:25.118Z,22.10
2018-07-04T01:44:12.634Z,22.10
2018-07-04T01:46:59.227Z,22.10
2018-07-04T01:49:45.932Z,22.10
2018-07-04T01:52:32.708Z,22.00
2018-07-04T01:55:19.325Z,22.00
2018-07-04T01:58:05.941Z,21.90
2018-07-04T02:00:52.759Z,22.00
2018-07-04T02:03:39.663Z,22.10
2018-07-04T02:06:26.318Z,22.10
2018-07-04T02:09:12.904Z,22.10
2018-07-04T02:11:59.781Z,22.10
2018-07-04T02:14:46.556Z,22.10
2018-07-04T02:17:33.209Z,22.10
2018-07-04T02:20:19.886Z,22.00
2018-07-04T02:23:06.670Z,21.70
2018-07-04T02:25:53.522Z,21.40
2018-07-04T02:28:40.123Z,21.50
2018-07-04T02:31:26.864Z,21.40
2018-07-04T02:34:13.576Z,21.20
2018-07-04T02:37:00.090Z,21.10
2018-07-04T02:39:47.603Z,20.90
2018-07-04T02:42:34.248Z,20.90
2018-07-04T02:45:20.939Z,20.70
2018-07-04T02:48:08.455Z,20.70
2018-07-04T02:50:55.894Z,20.80
2018-07-04T02:53:42.653Z,21.00
2018-07-04T02:56:29.487Z,21.00
2018-07-04T02:59:16.402Z,21.10
2018-07-04T03:02:03.026Z,21.20
2018-07-04T03:04:49.904Z,21.20
2018-07-04T03:07:36.573Z,21.30
2018-07-04T03:10:23.111Z,21.20
2018-07-04T03:13:09.773Z,21.20
2018-07-04T03:15:56.429Z,21.20
2018-07-04T03:18:43.124Z,21.30
2018-07-04T03:21:29.735Z,21.30
2018-07-04T03:24:16.374Z,21.30
2018-07-04T03:27:03.081Z,21.20
2018-07-04T03:29:49.866Z,21.20
2018-07-04T03:32:36.470Z,21.30
2018-07-04T03:35:23.225Z,21.30
2018-07-04T03:38:10.033Z,21.30
2018-07-04T03:40:56.824Z,21.00
2018-07-04T03:43:43.441Z,20.80
2018-07-04T03:46:30.808Z,20.70
2018-07-04T03:49:17.569Z,20.80
2018-07-04T03:52:04.364Z,20.80
2018-07-04T03:54:51.049Z,20.90
2018-07-04T03:57:37.788Z,20.90
2018-07-04T04:00:25.114Z,20.90
2018-07-04T04:03:12.625Z,20.90
2018-07-04T04:05:59.391Z,21.00
2018-07-04T04:08:46.062Z,21.00
2018-07-04T04:11:32.748Z,20.90
2018-07-04T04:14:19.585Z,20.90
2018-07-04T04:17:07.090Z,20.90
2018-07-04T04:19:53.852Z,20.90
2018-07-04T04:22:40.457Z,21.00
2018-07-04T04:25:27.193Z,21.00
2018-07-04T04:28:13.929Z,20.90
2018-07-04T04:31:00.573Z,21.00
2018-07-04T04:33:47.354Z,21.00
2018-07-04T04:36:33.953Z,21.00
2018-07-04T04:39:21.475Z,21.00
2018-07-04T04:42:08.599Z,21.20
2018-07-04T04:44:55.949Z,21.10
2018-07-04T04:47:42.696Z,21.00
2018-07-04T04:50:29.448Z,21.10
2018-07-04T04:53:16.824Z,21.00
2018-07-04T04:56:03.328Z,21.00
2018-07-04T04:58:49.875Z,21.00
2018-07-04T05:01:37.453Z,21.00
2018-07-04T05:04:24.286Z,21.00
2018-07-04T05:07:10.806Z,21.10
2018-07-04T05:09:57.657Z,21.10
2018-07-04T05:12:44.448Z,21.10
2018-07-04T05:15:31.038Z,21.20
2018-07-04T05:18:18.427Z,21.30
2018-07-04T05:21:05.189Z,21.40
2018-07-04T05:23:51.927Z,21.30
2018-07-04T05:26:38.551Z,21.40
2018-07-04T05:29:25.367Z,21.40
2018-07-04T05:32:11.951Z,21.40
2018-07-04T05:34:58.675Z,21.40
2018-07-04T05:37:45.321Z,21.50
2018-07-04T05:40:32.107Z,21.50
2018-07-04T05:43:18.846Z,21.60
2018-07-04T05:46:05.675Z,21.80
2018-07-04T05:48:52.180Z,21.70
2018-07-04T05:51:38.929Z,21.90
2018-07-04T05:54:25.687Z,22.00
2018-07-04T05:57:12.513Z,22.10
2018-07-04T05:59:59.745Z,22.20
2018-07-04T06:02:46.665Z,22.30
2018-07-04T06:05:33.458Z,22.20
2018-07-04T06:08:20.194Z,22.40
2018-07-04T06:11:06.837Z,22.60
2018-07-04T06:13:53.676Z,22.60
2018-07-04T06:16:40.398Z,22.60
2018-07-04T06:19:27.103Z,22.70
2018-07-04T06:22:13.923Z,22.80
2018-07-04T06:25:00.671Z,22.90
2018-07-04T06:27:47.246Z,23.00
2018-07-04T06:30:33.894Z,23.10
2018-07-04T06:33:20.670Z,23.30
2018-07-04T06:36:07.263Z,23.30
2018-07-04T06:38:36.192Z,23.30
2018-07-04T06:41:04.217Z,23.40
2018-07-04T06:43:32.319Z,23.50
2018-07-04T06:46:00.408Z,23.50
2018-07-04T06:48:28.520Z,23.60
2018-07-04T06:50:56.603Z,23.60
2018-07-04T06:53:24.695Z,23.80
2018-07-04T06:55:52.786Z,23.80
2018-07-04T06:58:20.896Z,23.80
2018-07-04T07:00:48.983Z,23.90
2018-07-04T07:03:35.682Z,24.00
2018-07-04T07:06:22.383Z,24.10
2018-07-04T07:09:09.110Z,24.00
2018-07-04T07:11:55.800Z,24.00
2018-07-04T07:14:42.473Z,24.10
2018-07-04T07:17:29.269Z,24.10
2018-07-04T07:20:15.986Z,24.20
2018-07-04T07:23:02.568Z,24.30
2018-07-04T07:25:49.263Z,24.30
2018-07-04T07:28:35.821Z,24.30
2018-07-04T07:31:22.494Z,24.30
2018-07-04T07:34:09.292Z,24.50
2018-07-04T07:36:55.902Z,24.60
2018-07-04T07:39:42.835Z,24.60
2018-07-04T07:42:29.435Z,24.60
2018-07-04T07:45:16.143Z,24.60
2018-07-04T07:48:02.847Z,24.70
2018-07-04T07:50:49.458Z,24.80
2018-07-04T07:53:35.994Z,24.90
2018-07-04T07:56:22.623Z,24.90
2018-07-04T07:59:09.387Z,25.00
2018-07-04T08:01:56.846Z,25.00
2018-07-04T08:04:43.295Z,25.10
2018-07-04T08:07:30.011Z,25.20
2018-07-04T08:10:16.617Z,25.20
2018-07-04T08:13:03.213Z,25.40
2018-07-04T08:15:50.040Z,25.50
2018-07-04T08:18:37.592Z,25.50
2018-07-04T08:21:24.267Z,25.60
2018-07-04T08:24:10.937Z,25.70
2018-07-04T08:26:57.630Z,25.80
2018-07-04T08:29:44.422Z,25.80
2018-07-04T08:32:31.289Z,26.00
2018-07-04T08:35:17.768Z,26.00
2018-07-04T08:38:04.510Z,26.10
2018-07-04T08:40:51.338Z,26.40
2018-07-04T08:43:38.078Z,26.50
2018-07-04T08:46:25.417Z,26.60
2018-07-04T08:49:12.389Z,26.70
2018-07-04T08:51:59.237Z,26.70
2018-07-04T08:54:45.943Z,26.60
2018-07-04T08:57:32.574Z,26.80
2018-07-04T09:00:19.374Z,27.00
2018-07-04T09:03:06.743Z,27.00
2018-07-04T09:05:53.355Z,27.10
2018-07-04T09:08:40.127Z,27.20
2018-07-04T09:11:26.852Z,27.40
2018-07-04T09:14:14.377Z,27.20
2018-07-04T09:17:01.642Z,27.40
2018-07-04T09:19:48.493Z,27.50
2018-07-04T09:22:35.111Z,27.50
2018-07-04T09:25:22.172Z,27.60
2018-07-04T09:28:08.761Z,27.70
2018-07-04T09:30:55.533Z,27.70
2018-07-04T09:33:42.390Z,27.70
2018-07-04T09:36:29.167Z,27.80
2018-07-04T09:39:16.782Z,27.90
2018-07-04T09:42:03.594Z,27.90
2018-07-04T09:44:50.269Z,27.90
2018-07-04T09:47:36.953Z,27.90
2018-07-04T09:50:23.719Z,27.90
2018-07-04T09:53:10.253Z,28.00
2018-07-04T09:55:57.017Z,28.10
2018-07-04T09:58:43.767Z,28.20
2018-07-04T10:01:31.385Z,28.50
2018-07-04T10:04:18.212Z,28.60
2018-07-04T10:07:05.740Z,28.70
2018-07-04T10:09:53.012Z,28.60
2018-07-04T10:12:39.782Z,28.70
2018-07-04T10:15:26.581Z,28.70
2018-07-04T10:18:13.569Z,28.90
2018-07-04T10:21:00.301Z,28.80
2018-07-04T10:23:47.040Z,28.80
2018-07-04T10:26:33.629Z,28.90
2018-07-04T10:29:20.933Z,28.90
2018-07-04T10:32:07.546Z,29.00
2018-07-04T10:34:54.365Z,29.10
2018-07-04T10:37:41.178Z,29.50
2018-07-04T10:40:27.934Z,29.70
2018-07-04T10:43:14.591Z,29.70
2018-07-04T10:46:02.092Z,29.80
2018-07-04T10:51:30.090Z,29.90
2018-07-04T10:54:17.531Z,29.90
2018-07-04T10:57:04.238Z,30.00
2018-07-04T10:59:50.840Z,30.20
2018-07-04T11:02:37.640Z,30.30
2018-07-04T11:05:24.346Z,30.00
2018-07-04T11:08:11.177Z,30.10
2018-07-04T11:10:58.395Z,30.30
2018-07-04T11:13:45.187Z,30.40
2018-07-04T11:16:31.809Z,30.50
2018-07-04T11:19:18.546Z,30.70
2018-07-04T11:22:05.114Z,31.00
2018-07-04T11:24:51.947Z,31.10
2018-07-04T11:27:38.553Z,30.80
2018-07-04T11:30:25.170Z,30.60
2018-07-04T11:33:12.775Z,30.60
2018-07-04T11:35:59.518Z,30.50
2018-07-04T11:38:46.108Z,30.20
2018-07-04T11:41:33.539Z,29.90
2018-07-04T11:44:20.357Z,29.90
2018-07-04T11:46:48.456Z,29.70
2018-07-04T11:49:16.672Z,29.60
2018-07-04T11:54:13.719Z,29.50
2018-07-04T11:56:41.807Z,29.50
2018-07-04T11:59:09.895Z,29.40
2018-07-04T12:01:38.749Z,29.30
2018-07-04T12:04:25.588Z,29.00
2018-07-04T12:07:01.698Z,28.20
2018-07-04T12:09:30.536Z,27.10
2018-07-04T12:11:58.617Z,26.30
2018-07-04T12:14:27.449Z,25.60
2018-07-04T12:16:55.537Z,25.40
2018-07-04T12:19:23.623Z,25.40
2018-07-04T12:21:51.719Z,25.20
2018-07-04T12:24:19.834Z,25.20
2018-07-04T12:26:47.972Z,25.10
2018-07-04T12:29:16.044Z,25.00
2018-07-04T12:31:44.880Z,24.80
2018-07-04T12:34:12.985Z,24.70
2018-07-04T12:39:10.004Z,24.10
2018-07-04T12:41:38.081Z,24.10
2018-07-04T12:44:06.190Z,23.90
2018-07-04T12:46:34.439Z,24.00
2018-07-04T12:49:02.502Z,24.00
2018-07-04T12:51:30.604Z,23.90
2018-07-04T12:53:58.759Z,23.90
2018-07-04T12:56:45.535Z,23.60
2018-07-04T12:59:32.315Z,23.70
2018-07-04T13:02:19.040Z,23.80
2018-07-04T13:05:05.691Z,24.00
2018-07-04T13:07:52.591Z,24.10
2018-07-04T13:10:39.287Z,24.10
2018-07-04T13:13:25.785Z,24.10
2018-07-04T13:16:13.255Z,24.10
2018-07-04T13:19:00.046Z,24.10
2018-07-04T13:21:46.801Z,24.10
2018-07-04T13:27:14.602Z,24.20
2018-07-04T13:30:02.211Z,24.30
2018-07-04T13:32:49.026Z,24.50
2018-07-04T13:38:16.839Z,24.50
2018-07-04T13:41:04.319Z,24.70
2018-07-04T13:43:50.943Z,24.90
2018-07-04T13:46:37.578Z,25.00
2018-07-04T13:49:25.110Z,25.20
2018-07-04T13:52:11.767Z,25.50
2018-07-04T13:54:58.356Z,25.60
2018-07-04T13:57:45.135Z,25.80
2018-07-04T14:00:31.952Z,25.80
2018-07-04T14:03:19.624Z,26.10
2018-07-04T14:06:06.259Z,26.40
2018-07-04T14:08:53.111Z,26.60
2018-07-04T14:11:39.998Z,26.60
2018-07-04T14:14:26.525Z,26.70
2018-07-04T14:17:13.163Z,27.10
2018-07-04T14:19:59.898Z,27.60
2018-07-04T14:22:46.697Z,27.70
2018-07-04T14:25:33.479Z,28.10
2018-07-04T14:28:20.155Z,28.50
2018-07-04T14:31:06.898Z,28.80
2018-07-04T14:33:53.711Z,29.10
2018-07-04T14:36:40.560Z,29.40
2018-07-04T14:39:27.250Z,29.60
2018-07-04T14:42:13.938Z,29.80
2018-07-04T14:45:00.793Z,30.00
2018-07-04T14:47:47.442Z,30.30
2018-07-04T14:50:34.837Z,30.10
2018-07-04T14:53:21.684Z,29.90
2018-07-04T14:56:08.456Z,30.00
2018-07-04T14:58:55.184Z,29.70
2018-07-04T15:01:42.601Z,30.00
2018-07-04T15:04:29.506Z,30.20
2018-07-04T15:07:16.148Z,30.50
2018-07-04T15:10:03.557Z,30.00
2018-07-04T15:12:49.984Z,29.90
2018-07-04T15:15:36.611Z,29.60
2018-07-04T15:18:24.162Z,30.00
2018-07-04T15:21:10.865Z,30.30
2018-07-04T15:23:57.523Z,30.10
2018-07-04T15:26:44.262Z,29.80
2018-07-04T15:29:31.014Z,29.60
2018-07-04T15:32:18.541Z,29.30
2018-07-04T15:35:05.426Z,29.40
2018-07-04T15:37:52.123Z,29.30
2018-07-04T15:40:39.094Z,29.20
2018-07-04T15:43:26.692Z,29.30
2018-07-04T15:46:13.497Z,29.70
2018-07-04T15:49:00.327Z,29.80
2018-07-04T15:51:47.751Z,29.90
2018-07-04T15:54:34.639Z,30.10
2018-07-04T15:57:21.441Z,29.80
2018-07-04T16:00:08.991Z,29.50
2018-07-04T16:02:55.749Z,29.20
2018-07-04T16:05:42.535Z,28.90
2018-07-04T16:08:29.925Z,28.80
2018-07-04T16:11:16.691Z,28.30
2018-07-04T16:14:03.452Z,28.00
2018-07-04T16:19:32.193Z,24.80
2018-07-04T16:22:19.005Z,24.40
2018-07-04T16:25:06.364Z,24.10
2018-07-04T16:27:53.021Z,24.10
2018-07-04T16:30:39.733Z,24.10
2018-07-04T16:33:26.398Z,23.80
2018-07-04T16:36:12.993Z,23.70
2018-07-04T16:38:59.698Z,22.20
2018-07-04T16:41:47.264Z,20.80
2018-07-04T16:44:34.066Z,20.80
2018-07-04T16:47:20.560Z,21.00
2018-07-04T16:50:07.118Z,21.50
2018-07-04T16:52:53.920Z,22.20
2018-07-04T16:55:40.687Z,22.50
2018-07-04T16:58:27.263Z,22.80
2018-07-04T17:01:14.667Z,23.30
2018-07-04T17:04:01.233Z,23.40
2018-07-04T17:06:48.090Z,23.90
2018-07-04T17:09:34.832Z,24.40
2018-07-04T17:12:21.825Z,24.50
2018-07-04T17:15:08.622Z,24.70
2018-07-04T17:17:56.064Z,24.90
2018-07-04T17:20:42.983Z,24.90
2018-07-04T17:23:29.784Z,24.90
2018-07-04T17:26:16.456Z,24.90
2018-07-04T17:29:03.327Z,24.60
2018-07-04T17:31:50.764Z,24.50
2018-07-04T17:34:37.374Z,24.50
2018-07-04T17:37:24.289Z,24.40
2018-07-04T17:40:11.152Z,24.30
2018-07-04T17:42:57.985Z,24.20
2018-07-04T17:45:45.396Z,24.10
2018-07-04T17:48:32.320Z,24.00
2018-07-04T17:51:19.052Z,23.90
2018-07-04T17:54:05.718Z,23.90
2018-07-04T17:56:52.605Z,23.90
2018-07-04T17:59:39.197Z,24.00
2018-07-04T18:02:25.823Z,24.00
2018-07-04T18:05:12.547Z,23.90
2018-07-04T18:07:59.180Z,23.80
2018-07-04T18:10:45.773Z,23.80
2018-07-04T18:13:32.492Z,23.90
2018-07-04T18:16:19.914Z,23.90
2018-07-04T18:19:06.637Z,23.90
2018-07-04T18:21:54.361Z,23.90
2018-07-04T18:24:41.205Z,23.90
2018-07-04T18:27:27.722Z,23.90
2018-07-04T18:30:14.527Z,23.90
2018-07-04T18:33:01.289Z,23.80
2018-07-04T18:35:48.638Z,23.90
2018-07-04T18:38:35.396Z,23.90
2018-07-04T18:41:22.137Z,23.90
2018-07-04T18:44:09.841Z,23.80
2018-07-04T18:46:56.640Z,23.90
2018-07-04T18:49:43.383Z,23.80
2018-07-04T18:52:31.379Z,23.60
2018-07-04T18:55:17.994Z,23.50
2018-07-04T18:58:04.624Z,23.40
2018-07-04T19:00:51.327Z,23.40
2018-07-04T19:03:37.990Z,23.30
2018-07-04T19:06:24.776Z,23.40
2018-07-04T19:09:11.453Z,23.40
2018-07-04T19:11:58.116Z,23.40
2018-07-04T19:14:44.935Z,23.40
2018-07-04T19:17:31.706Z,23.40
2018-07-04T19:20:18.956Z,23.40
2018-07-04T19:23:05.722Z,23.50
2018-07-04T19:25:52.610Z,23.50
2018-07-04T19:28:39.313Z,23.50
2018-07-04T19:31:25.799Z,23.50
2018-07-04T19:34:12.503Z,23.50
2018-07-04T19:36:59.366Z,23.60
2018-07-04T19:39:45.974Z,23.60
2018-07-04T19:42:33.472Z,23.60
2018-07-04T19:45:20.249Z,23.70
2018-07-04T19:48:07.196Z,23.60
2018-07-04T19:50:53.848Z,23.50
2018-07-04T19:53:40.615Z,23.10
2018-07-04T19:56:27.461Z,22.90
2018-07-04T19:59:14.330Z,22.90
2018-07-04T20:02:00.961Z,22.60
2018-07-04T20:04:47.816Z,22.50
2018-07-04T20:07:34.643Z,22.40
2018-07-04T20:10:22.300Z,22.40
2018-07-04T20:13:08.921Z,22.30
2018-07-04T20:15:55.550Z,22.30
2018-07-04T20:18:42.215Z,22.30
2018-07-04T20:21:29.711Z,22.20
2018-07-04T20:24:16.338Z,22.10
2018-07-04T20:27:04.093Z,22.10
2018-07-04T20:29:51.357Z,22.20
2018-07-04T20:32:37.932Z,22.20
2018-07-04T20:35:24.630Z,22.20
2018-07-04T20:38:11.248Z,22.20
2018-07-04T20:40:57.946Z,22.30
2018-07-04T20:43:44.556Z,22.40
2018-07-04T20:46:31.339Z,22.30
2018-07-04T20:49:18.161Z,22.10
2018-07-04T20:52:05.710Z,22.10
2018-07-04T20:54:52.510Z,22.10
2018-07-04T20:57:39.250Z,22.20
2018-07-04T21:00:25.985Z,22.30
2018-07-04T21:03:13.790Z,22.20
2018-07-04T21:08:41.881Z,22.00
2018-07-04T21:14:10.109Z,22.20
2018-07-04T21:16:56.878Z,22.20
2018-07-04T21:19:43.744Z,22.20
2018-07-04T21:22:31.286Z,22.20
2018-07-04T21:25:17.891Z,22.00
2018-07-04T21:28:04.901Z,21.90
2018-07-04T21:30:52.364Z,21.70
2018-07-04T21:33:39.114Z,21.80
2018-07-04T21:36:25.648Z,21.70
2018-07-04T21:39:13.138Z,21.60
2018-07-04T21:41:59.981Z,21.50
2018-07-04T21:44:47.380Z,21.60
2018-07-04T21:47:34.029Z,21.60
2018-07-04T21:50:20.850Z,21.50
2018-07-04T21:53:07.447Z,21.70
2018-07-04T21:55:54.150Z,21.70
2018-07-04T21:58:40.750Z,21.60
2018-07-04T22:01:27.581Z,21.70
2018-07-04T22:04:14.628Z,21.60
2018-07-04T22:07:01.102Z,21.60
2018-07-04T22:09:48.762Z,21.60
2018-07-04T22:12:35.533Z,21.60
2018-07-04T22:15:22.345Z,21.50
2018-07-04T22:18:09.666Z,21.50
2018-07-04T22:20:56.588Z,21.30
2018-07-04T22:23:44.229Z,21.30
2018-07-04T22:26:31.634Z,21.20
2018-07-04T22:29:18.438Z,21.30
2018-07-04T22:32:05.147Z,21.30
2018-07-04T22:34:51.858Z,21.30
2018-07-04T22:37:38.340Z,21.30
2018-07-04T22:40:25.092Z,21.30
2018-07-04T22:43:11.890Z,21.20
2018-07-04T22:45:58.742Z,21.00
2018-07-04T22:48:45.579Z,21.00
2018-07-04T22:51:32.335Z,21.10
2018-07-04T22:54:18.978Z,21.10
2018-07-04T22:57:05.583Z,21.20
2018-07-04T22:59:52.177Z,21.10
2018-07-04T23:02:38.936Z,21.10
2018-07-04T23:05:26.472Z,21.10
2018-07-04T23:08:13.727Z,21.10
2018-07-04T23:11:00.456Z,21.10
2018-07-04T23:13:47.202Z,21.00
2018-07-04T23:16:34.023Z,20.80
2018-07-04T23:19:20.707Z,20.80
2018-07-04T23:22:07.447Z,20.80
2018-07-04T23:24:54.269Z,20.80
2018-07-04T23:27:41.067Z,20.70
2018-07-04T23:30:28.418Z,20.60
2018-07-04T23:33:15.010Z,20.50
2018-07-04T23:36:01.799Z,20.40
2018-07-04T23:38:48.414Z,20.20
2018-07-04T23:41:35.058Z,20.10
2018-07-04T23:44:21.719Z,20.00
2018-07-04T23:47:08.536Z,20.10
2018-07-04T23:49:55.839Z,20.10
2018-07-04T23:52:42.520Z,20.20
2018-07-04T23:55:29.141Z,20.20
2018-07-04T23:58:15.911Z,20.30
